Time;durP1;ratioP1;P1;durP2;ratioP2;P2;SDS_P1;SDS_P2;PMS_P1;PMS_P2;Temp;Humidity;BMP_temperature;BMP_pressure;BME280_temperature;BME280_humidity;BME280_pressure;Samples;Min_cycle;Max_cycle;Signal;HPM_P1;HPM_P2
2023/07/29 00:01:03;;;;;;;3.65;1.40;;;23.00;67.10;;;;;;5043426;28;20743;-48
2023/07/29 00:03:32;;;;;;;0.85;0.85;;;23.00;67.20;;;;;;5046596;28;20056;-47
2023/07/29 00:06:01;;;;;;;1.35;1.20;;;23.00;67.40;;;;;;5048007;28;20079;-51
2023/07/29 00:08:30;;;;;;;1.25;1.10;;;23.00;67.50;;;;;;5047557;28;20052;-48
2023/07/29 00:10:59;;;;;;;1.13;1.10;;;23.00;67.70;;;;;;5048397;28;20115;-48
2023/07/29 00:13:28;;;;;;;0.98;0.93;;;23.10;67.70;;;;;;5051827;28;20065;-47
2023/07/29 00:15:57;;;;;;;1.02;1.02;;;23.10;67.80;;;;;;5051456;28;20041;-47
2023/07/29 00:18:24;;;;;;;1.20;1.15;;;23.10;68.00;;;;;;5051216;28;20079;-47
2023/07/29 00:20:51;;;;;;;1.10;1.10;;;23.10;67.90;;;;;;5051384;28;20069;-48
2023/07/29 00:23:21;;;;;;;1.35;0.90;;;23.10;68.00;;;;;;5050340;28;20122;-50
2023/07/29 00:25:50;;;;;;;1.20;1.10;;;23.10;68.00;;;;;;5049562;28;20059;-48
2023/07/29 00:28:22;;;;;;;1.08;0.93;;;23.10;68.10;;;;;;5047105;28;20041;-51
2023/07/29 00:30:54;;;;;;;1.15;1.15;;;23.10;68.10;;;;;;5046793;28;20041;-49
2023/07/29 00:33:23;;;;;;;1.85;1.08;;;23.10;68.30;;;;;;5051696;28;20033;-47
2023/07/29 00:35:50;;;;;;;1.15;1.05;;;23.10;68.10;;;;;;5033690;28;20077;-48
2023/07/29 00:38:18;;;;;;;1.02;1.02;;;23.10;68.20;;;;;;5048708;28;20617;-49
2023/07/29 00:40:45;;;;;;;1.55;1.10;;;23.20;68.40;;;;;;5051253;28;20127;-47
2023/07/29 00:43:14;;;;;;;2.05;1.13;;;23.20;68.30;;;;;;5051127;28;20644;-48
2023/07/29 00:45:43;;;;;;;2.17;1.30;;;23.20;68.40;;;;;;5032127;28;20069;-51
2023/07/29 00:48:10;;;;;;;2.15;1.10;;;23.20;68.50;;;;;;5032226;28;20135;-47
2023/07/29 00:50:42;;;;;;;1.50;1.40;;;23.20;68.50;;;;;;5049835;28;20135;-49
2023/07/29 00:53:10;;;;;;;3.20;1.13;;;23.20;68.70;;;;;;5015982;28;20040;-47
2023/07/29 00:55:40;;;;;;;1.17;1.08;;;23.20;68.60;;;;;;5046836;28;20042;-47
2023/07/29 00:58:07;;;;;;;0.93;0.93;;;23.30;68.70;;;;;;5032719;28;20528;-47
2023/07/29 01:00:34;;;;;;;1.65;1.17;;;23.30;68.70;;;;;;5029619;28;20139;-49
2023/07/29 01:03:05;;;;;;;2.10;1.38;;;23.30;68.70;;;;;;5032752;28;20040;-47
2023/07/29 01:05:47;;;;;;;2.10;1.30;;;23.30;68.70;;;;;;5051276;28;20044;-51
2023/07/29 01:08:37;;;;;;;1.20;1.20;;;23.30;68.70;;;;;;5029826;28;20720;-48
2023/07/29 01:11:26;;;;;;;1.20;1.10;;;23.40;69.00;;;;;;5032659;28;20099;-48
2023/07/29 01:14:10;;;;;;;2.00;1.20;;;23.40;69.00;;;;;;5047558;28;20041;-51
2023/07/29 01:16:51;;;;;;;1.20;1.02;;;23.40;68.90;;;;;;5031939;28;20068;-47
2023/07/29 01:19:40;;;;;;;1.50;1.40;;;23.40;68.90;;;;;;5050848;28;20481;-50
2023/07/29 01:22:08;;;;;;;2.63;1.42;;;23.40;69.00;;;;;;5047078;28;20149;-49
2023/07/29 01:24:35;;;;;;;1.63;1.00;;;23.40;68.50;;;;;;5049804;28;20099;-47
2023/07/29 01:27:06;;;;;;;1.05;1.02;;;23.40;68.70;;;;;;5047269;28;20599;-48
2023/07/29 01:29:34;;;;;;;2.28;1.83;;;23.40;68.60;;;;;;5046132;28;20389;-50
2023/07/29 01:32:10;;;;;;;2.40;1.45;;;23.40;68.70;;;;;;5049762;28;20037;-47
2023/07/29 01:34:45;;;;;;;1.40;1.30;;;23.40;68.80;;;;;;5049265;28;20122;-48
2023/07/29 01:37:19;;;;;;;2.28;1.10;;;23.50;69.10;;;;;;5049898;28;20392;-49
2023/07/29 01:39:46;;;;;;;2.20;1.27;;;23.40;69.00;;;;;;5047501;28;20029;-47
2023/07/29 01:42:13;;;;;;;1.20;1.10;;;23.40;68.90;;;;;;5031641;28;20064;-47
2023/07/29 01:44:42;;;;;;;1.50;1.40;;;23.40;69.00;;;;;;5050673;28;20033;-51
2023/07/29 01:47:13;;;;;;;1.55;1.45;;;23.30;68.90;;;;;;5028354;28;20410;-47
2023/07/29 01:49:40;;;;;;;1.45;1.35;;;23.40;69.00;;;;;;5047438;28;20049;-50
2023/07/29 01:52:09;;;;;;;1.80;1.40;;;23.40;69.80;;;;;;5031170;28;20049;-49
2023/07/29 01:54:38;;;;;;;1.50;1.40;;;23.40;69.20;;;;;;5032612;28;20053;-46
2023/07/29 01:57:05;;;;;;;1.35;1.25;;;23.40;69.00;;;;;;5028241;28;20068;-51
2023/07/29 01:59:34;;;;;;;1.52;1.42;;;23.40;69.10;;;;;;5043929;28;20775;-47
2023/07/29 02:02:00;;;;;;;1.90;1.42;;;23.40;69.20;;;;;;5031221;28;20041;-48
2023/07/29 02:04:32;;;;;;;1.50;1.40;;;23.40;69.40;;;;;;5048719;28;20065;-48
2023/07/29 02:07:01;;;;;;;4.15;1.70;;;23.40;69.70;;;;;;5030500;28;20049;-47
2023/07/29 02:09:32;;;;;;;1.52;1.30;;;23.40;69.40;;;;;;5032913;28;20052;-51
2023/07/29 02:12:03;;;;;;;1.60;1.45;;;23.40;69.60;;;;;;5048477;28;20060;-49
2023/07/29 02:14:36;;;;;;;2.30;1.60;;;23.30;69.70;;;;;;5049996;28;20123;-47
2023/07/29 02:17:13;;;;;;;2.80;1.85;;;23.40;69.70;;;;;;5048495;28;20071;-49
2023/07/29 02:19:40;;;;;;;2.50;1.48;;;23.40;69.70;;;;;;5046436;28;20029;-47
2023/07/29 02:22:14;;;;;;;1.85;1.33;;;23.40;69.80;;;;;;5048585;28;20049;-48
2023/07/29 02:24:44;;;;;;;2.10;1.90;;;23.30;70.00;;;;;;5032351;28;20152;-51
2023/07/29 02:27:11;;;;;;;2.10;2.00;;;23.30;70.00;;;;;;5028709;28;20579;-48
2023/07/29 02:29:42;;;;;;;1.98;1.88;;;23.30;70.10;;;;;;5026005;28;20045;-51
2023/07/29 02:32:10;;;;;;;1.58;1.45;;;23.30;70.20;;;;;;5046964;28;20569;-51
2023/07/29 02:34:42;;;;;;;1.80;1.70;;;23.30;70.10;;;;;;5031836;28;20051;-47
2023/07/29 02:37:10;;;;;;;2.08;1.98;;;23.30;70.30;;;;;;5028643;28;20673;-48
2023/07/29 02:39:39;;;;;;;3.20;1.90;;;23.30;70.40;;;;;;5047881;28;20040;-47
2023/07/29 02:42:06;;;;;;;4.85;2.10;;;23.30;70.60;;;;;;5030279;28;20048;-50
2023/07/29 02:44:33;;;;;;;2.58;2.10;;;23.30;70.60;;;;;;5031476;28;20140;-51
2023/07/29 02:47:00;;;;;;;2.95;2.75;;;23.30;70.60;;;;;;5031118;28;20045;-48
2023/07/29 02:49:31;;;;;;;2.33;2.13;;;23.30;70.80;;;;;;5031338;28;20048;-48
2023/07/29 02:51:58;;;;;;;9.35;2.70;;;23.30;71.00;;;;;;5046647;28;20045;-51
2023/07/29 02:54:24;;;;;;;2.13;2.00;;;23.30;70.90;;;;;;5048805;28;20071;-48
2023/07/29 02:56:51;;;;;;;2.20;2.00;;;23.30;70.90;;;;;;5051617;28;20087;-48
2023/07/29 02:59:18;;;;;;;2.67;2.03;;;23.20;70.90;;;;;;5009647;28;20041;-49
2023/07/29 03:01:48;;;;;;;3.03;2.13;;;23.30;71.10;;;;;;5045561;28;20106;-49
2023/07/29 03:04:17;;;;;;;;;;;23.20;71.20;;;;;;5031750;28;20044;-50
2023/07/29 03:06:48;;;;;;;2.75;2.20;;;23.30;70.80;;;;;;5048399;28;19921;-51
2023/07/29 03:09:17;;;;;;;2.53;2.33;;;23.30;70.40;;;;;;5029456;28;20052;-48
2023/07/29 03:11:44;;;;;;;2.28;2.03;;;23.20;70.50;;;;;;5030068;28;20033;-49
2023/07/29 03:14:14;;;;;;;3.72;2.13;;;23.20;70.80;;;;;;5030248;28;20495;-48
2023/07/29 03:16:41;;;;;;;4.03;2.85;;;23.10;71.00;;;;;;5028303;28;20128;-50
2023/07/29 03:19:12;;;;;;;3.63;2.47;;;23.10;71.20;;;;;;5030875;28;20045;-48
2023/07/29 03:21:38;;;;;;;2.50;2.30;;;23.10;71.50;;;;;;5030276;28;20049;-51
2023/07/29 03:24:07;;;;;;;2.75;2.55;;;23.10;71.30;;;;;;5029266;28;20041;-49
2023/07/29 03:26:36;;;;;;;2.57;2.47;;;23.10;71.50;;;;;;5045218;28;20138;-48
2023/07/29 03:29:03;;;;;;;3.53;2.05;;;23.10;71.40;;;;;;5046438;28;20116;-51
2023/07/29 03:31:33;;;;;;;3.28;2.97;;;23.00;71.50;;;;;;5048297;28;20127;-48
2023/07/29 03:33:59;;;;;;;2.97;2.67;;;23.10;71.80;;;;;;5048817;28;20097;-48
2023/07/29 03:36:32;;;;;;;2.22;2.13;;;23.10;71.60;;;;;;5033417;28;20451;-50
2023/07/29 03:39:00;;;;;;;3.80;3.17;;;23.00;71.80;;;;;;5029100;28;20056;-47
2023/07/29 03:41:29;;;;;;;2.00;1.80;;;23.00;70.80;;;;;;5032354;28;20044;-51
2023/07/29 03:43:59;;;;;;;3.13;1.83;;;23.00;70.40;;;;;;5031542;28;20061;-48
2023/07/29 03:46:28;;;;;;;3.20;1.75;;;23.00;69.60;;;;;;5033059;28;20040;-47
2023/07/29 03:48:57;;;;;;;1.42;1.33;;;23.00;69.40;;;;;;5034574;28;20041;-48
2023/07/29 03:51:27;;;;;;;1.98;1.70;;;22.90;69.20;;;;;;5048095;28;20052;-48
2023/07/29 03:53:55;;;;;;;1.77;1.67;;;22.90;68.80;;;;;;5049636;28;20045;-47
2023/07/29 03:56:22;;;;;;;7.65;1.52;;;22.90;68.70;;;;;;5051070;28;20087;-50
2023/07/29 03:58:49;;;;;;;2.28;1.70;;;22.90;68.40;;;;;;5049559;28;20106;-47
2023/07/29 04:01:16;;;;;;;1.85;1.30;;;22.80;68.20;;;;;;5050103;28;20051;-49
2023/07/29 04:03:46;;;;;;;1.67;1.58;;;22.70;67.90;;;;;;5034971;28;20075;-48
2023/07/29 04:06:15;;;;;;;1.52;1.27;;;22.70;67.80;;;;;;5034572;28;20056;-47
2023/07/29 04:08:44;;;;;;;1.50;1.40;;;22.70;67.80;;;;;;5032465;28;20040;-49
2023/07/29 04:11:11;;;;;;;3.22;1.33;;;22.60;67.70;;;;;;5034318;28;20045;-48
2023/07/29 04:13:39;;;;;;;1.65;1.02;;;22.60;67.70;;;;;;5034706;28;20033;-48
2023/07/29 04:16:07;;;;;;;1.98;1.08;;;22.60;67.80;;;;;;5033845;28;20087;-47
2023/07/29 04:18:39;;;;;;;1.33;1.20;;;22.50;67.90;;;;;;5049457;28;20040;-51
2023/07/29 04:21:08;;;;;;;2.63;1.77;;;22.50;67.90;;;;;;5031117;28;20049;-47
2023/07/29 04:23:35;;;;;;;2.88;1.15;;;22.50;68.50;;;;;;5034513;28;20045;-47
2023/07/29 04:26:04;;;;;;;1.40;1.25;;;22.40;67.90;;;;;;5034361;28;20041;-49
2023/07/29 04:28:34;;;;;;;1.42;1.33;;;22.40;68.10;;;;;;5052156;28;20064;-48
2023/07/29 04:31:01;;;;;;;1.60;1.15;;;22.40;68.30;;;;;;5032708;28;20045;-47
2023/07/29 04:33:34;;;;;;;2.50;1.58;;;22.30;68.10;;;;;;5052012;28;20033;-52
2023/07/29 04:36:03;;;;;;;1.50;1.40;;;22.40;68.20;;;;;;5034663;28;20561;-49
2023/07/29 04:38:34;;;;;;;4.05;1.55;;;22.40;68.30;;;;;;5049406;28;20034;-52
2023/07/29 04:41:06;;;;;;;1.50;1.40;;;22.30;68.60;;;;;;5035769;28;20091;-52
2023/07/29 04:43:34;;;;;;;1.40;1.30;;;22.30;68.70;;;;;;5034836;28;20048;-47
2023/07/29 04:46:01;;;;;;;2.00;1.90;;;22.30;68.50;;;;;;5031768;28;20091;-51
2023/07/29 04:48:31;;;;;;;2.15;1.45;;;22.30;68.60;;;;;;5053122;28;20045;-48
2023/07/29 04:50:58;;;;;;;1.70;1.60;;;22.30;68.70;;;;;;5050269;28;20033;-49
2023/07/29 04:53:27;;;;;;;3.22;1.30;;;22.20;68.80;;;;;;5043551;28;20549;-51
2023/07/29 04:55:56;;;;;;;2.13;1.83;;;22.20;68.70;;;;;;5069889;22;20069;-55
2023/07/29 04:58:24;;;;;;;1.60;1.50;;;22.20;68.70;;;;;;5037685;28;20045;-51
2023/07/29 05:00:54;;;;;;;1.63;1.40;;;22.20;68.40;;;;;;5037281;28;20514;-55
2023/07/29 05:03:24;;;;;;;2.40;1.58;;;22.20;68.50;;;;;;5040658;28;20041;-55
2023/07/29 05:05:53;;;;;;;2.63;1.77;;;22.20;68.70;;;;;;5022018;28;20052;-55
2023/07/29 05:08:20;;;;;;;1.90;1.70;;;22.20;68.70;;;;;;5040644;28;20086;-55
2023/07/29 05:10:49;;;;;;;1.80;1.67;;;22.20;68.70;;;;;;5026289;28;20091;-55
2023/07/29 05:13:17;;;;;;;1.88;1.77;;;22.20;68.90;;;;;;5039872;28;20037;-56
2023/07/29 05:15:44;;;;;;;3.13;1.50;;;22.20;68.90;;;;;;5041798;28;20037;-56
2023/07/29 05:18:14;;;;;;;2.30;2.10;;;22.20;68.70;;;;;;5034901;28;20375;-54
2023/07/29 05:20:46;;;;;;;1.90;1.60;;;22.10;68.90;;;;;;5037133;28;20045;-55
2023/07/29 05:23:18;;;;;;;1.80;1.70;;;22.20;68.70;;;;;;5041656;28;20094;-55
2023/07/29 05:25:44;;;;;;;2.75;1.45;;;22.20;68.60;;;;;;5034298;28;20042;-55
2023/07/29 05:28:11;;;;;;;2.15;1.20;;;22.10;68.50;;;;;;5027534;28;20099;-55
2023/07/29 05:30:44;;;;;;;6.53;2.95;;;22.10;68.30;;;;;;5034043;28;20041;-54
2023/07/29 05:33:11;;;;;;;1.70;1.48;;;22.10;68.30;;;;;;5035078;28;20108;-55
2023/07/29 05:35:40;;;;;;;1.42;1.33;;;22.10;68.20;;;;;;5025071;28;20044;-55
2023/07/29 05:38:09;;;;;;;2.55;1.73;;;22.10;68.00;;;;;;5017198;28;20041;-55
2023/07/29 05:40:36;;;;;;;1.88;1.73;;;22.00;67.90;;;;;;5022442;28;20133;-53
2023/07/29 05:43:03;;;;;;;2.40;1.73;;;22.10;67.90;;;;;;5032349;28;20045;-55
2023/07/29 05:45:32;;;;;;;4.45;1.60;;;22.10;67.70;;;;;;5032188;28;20038;-54
2023/07/29 05:48:02;;;;;;;2.00;1.80;;;22.00;67.70;;;;;;5022039;28;20087;-54
2023/07/29 05:50:30;;;;;;;1.60;1.50;;;22.10;67.60;;;;;;5034776;28;20045;-55
2023/07/29 05:53:00;;;;;;;1.70;1.25;;;22.10;67.60;;;;;;5025374;28;20064;-54
2023/07/29 05:55:29;;;;;;;1.58;1.05;;;22.10;67.70;;;;;;5034830;28;20071;-52
2023/07/29 05:57:58;;;;;;;1.70;1.60;;;22.00;67.50;;;;;;5042088;28;20048;-52
2023/07/29 06:00:25;;;;;;;2.53;1.25;;;22.00;67.40;;;;;;5030299;28;20041;-50
2023/07/29 06:02:57;;;;;;;1.33;1.25;;;22.00;67.50;;;;;;5035089;28;20052;-56
2023/07/29 06:05:28;;;;;;;2.80;1.45;;;22.00;67.70;;;;;;5021053;28;20096;-54
2023/07/29 06:07:54;;;;;;;1.75;1.33;;;22.00;67.80;;;;;;5022672;28;20654;-54
2023/07/29 06:10:22;;;;;;;1.33;1.00;;;22.00;68.00;;;;;;5020222;28;20052;-56
2023/07/29 06:12:51;;;;;;;1.73;1.60;;;22.00;68.00;;;;;;5040490;28;20163;-57
2023/07/29 06:15:19;;;;;;;2.80;2.30;;;22.00;68.20;;;;;;5006239;28;20073;-57
2023/07/29 06:17:50;;;;;;;1.17;1.17;;;22.00;68.40;;;;;;5030209;28;20526;-57
2023/07/29 06:20:19;;;;;;;1.25;1.15;;;22.10;68.40;;;;;;5027392;28;20041;-56
2023/07/29 06:22:46;;;;;;;2.65;2.03;;;22.10;68.40;;;;;;5023693;28;20050;-57
2023/07/29 06:25:26;;;;;;;2.03;1.50;;;22.10;68.40;;;;;;5031763;28;20240;-57
2023/07/29 06:27:52;;;;;;;1.33;1.23;;;22.10;68.50;;;;;;5032814;28;20110;-57
2023/07/29 06:30:19;;;;;;;2.20;1.60;;;22.10;68.40;;;;;;5026199;28;20045;-55
2023/07/29 06:32:46;;;;;;;1.70;1.58;;;22.20;68.50;;;;;;5015971;28;20128;-56
2023/07/29 06:35:12;;;;;;;2.20;1.50;;;22.20;68.40;;;;;;5030188;28;20053;-57
2023/07/29 06:37:39;;;;;;;2.08;1.67;;;22.20;68.20;;;;;;5029004;28;20499;-57
2023/07/29 06:40:06;;;;;;;1.80;1.42;;;22.20;68.10;;;;;;5037286;28;20141;-56
2023/07/29 06:42:33;;;;;;;1.75;1.65;;;22.20;67.90;;;;;;5035815;28;20045;-57
2023/07/29 06:45:00;;;;;;;2.55;1.40;;;22.20;67.70;;;;;;5020268;28;20061;-56
2023/07/29 06:47:26;;;;;;;2.13;1.20;;;22.20;67.70;;;;;;5024978;28;20080;-56
2023/07/29 06:49:54;;;;;;;1.80;1.25;;;22.20;67.60;;;;;;5026026;28;20057;-57
2023/07/29 06:52:20;;;;;;;1.67;1.30;;;22.30;67.40;;;;;;5025298;28;20128;-57
2023/07/29 06:54:47;;;;;;;1.38;1.05;;;22.20;67.40;;;;;;5025594;28;20135;-56
2023/07/29 06:57:14;;;;;;;2.20;1.00;;;22.30;67.20;;;;;;5033558;28;20048;-56
2023/07/29 06:59:40;;;;;;;1.13;1.08;;;22.30;67.30;;;;;;5034298;28;20038;-56
2023/07/29 07:02:07;;;;;;;2.45;1.00;;;22.30;67.10;;;;;;5035652;28;20048;-56
2023/07/29 07:04:34;;;;;;;1.08;0.98;;;22.30;66.70;;;;;;5041300;28;20046;-56
2023/07/29 07:07:00;;;;;;;3.65;1.20;;;22.30;66.50;;;;;;5038306;28;20072;-56
2023/07/29 07:09:27;;;;;;;1.33;1.20;;;22.30;66.30;;;;;;5031625;28;20088;-56
2023/07/29 07:11:54;;;;;;;1.85;1.10;;;22.30;66.60;;;;;;5042849;28;20110;-55
2023/07/29 07:14:20;;;;;;;2.72;1.15;;;22.30;66.30;;;;;;5042066;28;20490;-56
2023/07/29 07:16:47;;;;;;;0.95;0.85;;;22.30;65.90;;;;;;5036524;28;20502;-55
2023/07/29 07:19:14;;;;;;;2.35;0.95;;;22.30;65.60;;;;;;5040815;28;20132;-56
2023/07/29 07:21:40;;;;;;;0.98;0.95;;;22.30;65.50;;;;;;5042640;28;20065;-55
2023/07/29 07:24:07;;;;;;;1.90;0.90;;;22.30;65.50;;;;;;5047591;28;20071;-56
2023/07/29 07:26:34;;;;;;;1.33;0.90;;;22.40;65.80;;;;;;5036299;28;20130;-56
2023/07/29 07:29:01;;;;;;;1.00;1.00;;;22.40;65.70;;;;;;5041292;28;20484;-56
2023/07/29 07:31:28;;;;;;;1.70;1.20;;;22.30;65.70;;;;;;5035312;28;20045;-56
2023/07/29 07:33:55;;;;;;;2.60;1.10;;;22.30;65.30;;;;;;5032754;28;20046;-57
2023/07/29 07:36:21;;;;;;;1.45;1.30;;;22.30;65.30;;;;;;5037645;28;20045;-56
2023/07/29 07:38:48;;;;;;;2.70;1.17;;;22.40;65.50;;;;;;5034221;28;20044;-57
2023/07/29 07:41:15;;;;;;;2.80;1.42;;;22.40;65.60;;;;;;5043003;28;20116;-56
2023/07/29 07:43:42;;;;;;;1.95;0.95;;;22.40;65.60;;;;;;5023572;28;20511;-57
2023/07/29 07:46:08;;;;;;;0.85;0.85;;;22.40;65.50;;;;;;5041685;28;20570;-56
2023/07/29 07:48:35;;;;;;;1.17;1.08;;;22.50;65.00;;;;;;5036099;28;20045;-57
2023/07/29 07:51:10;;;;;;;0.70;0.70;;;22.50;65.00;;;;;;5042038;28;20120;-57
2023/07/29 07:53:37;;;;;;;1.27;0.77;;;22.50;64.90;;;;;;5043229;28;20065;-57
2023/07/29 07:56:04;;;;;;;1.58;1.00;;;22.60;65.10;;;;;;5040243;28;20096;-57
2023/07/29 07:58:31;;;;;;;0.93;0.80;;;22.60;64.80;;;;;;5015339;28;20091;-57
2023/07/29 08:01:07;;;;;;;1.40;1.30;;;22.60;65.10;;;;;;5032314;28;20148;-57
2023/07/29 08:03:35;;;;;;;2.85;1.02;;;22.70;65.00;;;;;;5045272;28;20069;-57
2023/07/29 08:06:02;;;;;;;0.77;0.77;;;22.80;65.30;;;;;;5044349;28;20041;-57
2023/07/29 08:08:29;;;;;;;1.27;1.05;;;23.00;65.00;;;;;;5032314;28;20503;-57
2023/07/29 08:10:58;;;;;;;1.67;0.88;;;23.10;64.70;;;;;;5044586;28;20128;-56
2023/07/29 08:13:29;;;;;;;0.80;0.55;;;23.10;63.80;;;;;;5044954;28;20041;-56
2023/07/29 08:15:58;;;;;;;0.95;0.70;;;23.30;64.10;;;;;;5031332;28;20073;-56
2023/07/29 08:18:30;;;;;;;2.20;0.95;;;23.40;63.90;;;;;;5043107;28;20041;-56
2023/07/29 08:21:02;;;;;;;2.88;0.93;;;23.50;63.40;;;;;;5036280;28;20082;-56
2023/07/29 08:23:30;;;;;;;1.00;0.95;;;23.50;62.60;;;;;;5042305;28;20136;-55
2023/07/29 08:26:04;;;;;;;0.95;0.70;;;23.70;62.70;;;;;;5038065;28;20099;-57
2023/07/29 08:28:42;;;;;;;0.80;0.80;;;23.80;62.40;;;;;;5027611;28;20061;-56
2023/07/29 08:31:09;;;;;;;1.05;0.70;;;23.90;62.90;;;;;;5026845;28;20046;-56
2023/07/29 08:33:36;;;;;;;0.95;0.75;;;24.00;63.00;;;;;;5041024;28;20056;-56
2023/07/29 08:36:03;;;;;;;0.88;0.88;;;24.10;62.10;;;;;;5041575;28;20045;-56
2023/07/29 08:38:33;;;;;;;0.70;0.70;;;24.20;61.80;;;;;;5016249;28;20450;-56
2023/07/29 08:41:19;;;;;;;0.80;0.80;;;24.40;61.20;;;;;;5032340;28;20052;-57
2023/07/29 08:43:59;;;;;;;0.70;0.70;;;24.50;60.80;;;;;;5035488;28;20104;-56
2023/07/29 08:46:26;;;;;;;1.83;1.20;;;24.50;59.90;;;;;;5039114;28;20535;-56
2023/07/29 08:48:55;;;;;;;1.48;0.80;;;24.60;59.90;;;;;;5030273;28;20040;-57
2023/07/29 08:51:42;;;;;;;0.70;0.70;;;24.60;59.70;;;;;;5042696;28;20107;-56
2023/07/29 08:54:13;;;;;;;0.90;0.80;;;24.60;59.70;;;;;;5039099;28;20041;-56
2023/07/29 08:56:41;;;;;;;0.73;0.73;;;24.60;59.70;;;;;;5029614;28;20042;-56
2023/07/29 08:59:10;;;;;;;0.63;0.60;;;24.60;59.80;;;;;;5032321;28;20688;-57
2023/07/29 09:01:38;;;;;;;0.73;0.73;;;24.60;59.90;;;;;;5032831;28;20069;-57
2023/07/29 09:04:05;;;;;;;1.73;0.93;;;24.70;59.60;;;;;;5044803;28;20057;-56
2023/07/29 09:06:33;;;;;;;0.70;0.70;;;24.70;59.40;;;;;;5031062;28;20073;-56
2023/07/29 09:09:00;;;;;;;0.77;0.68;;;24.80;58.90;;;;;;5027272;28;20040;-56
2023/07/29 09:11:27;;;;;;;0.90;0.70;;;24.80;58.80;;;;;;5033593;28;20053;-56
2023/07/29 09:13:54;;;;;;;1.85;1.25;;;24.90;58.80;;;;;;5041630;28;20094;-57
2023/07/29 09:16:21;;;;;;;0.88;0.85;;;24.90;58.90;;;;;;5035885;28;20468;-55
2023/07/29 09:18:52;;;;;;;2.05;0.80;;;25.00;58.70;;;;;;5030945;28;20045;-57
2023/07/29 09:21:26;;;;;;;1.00;0.80;;;25.00;58.60;;;;;;5037544;28;20065;-56
2023/07/29 09:23:53;;;;;;;1.45;1.00;;;25.10;58.10;;;;;;5034023;28;20041;-57
2023/07/29 09:26:27;;;;;;;1.33;0.70;;;25.10;57.90;;;;;;5038318;28;20045;-56
2023/07/29 09:28:56;;;;;;;0.60;0.60;;;25.20;58.30;;;;;;5030933;28;20072;-56
2023/07/29 09:31:24;;;;;;;0.65;0.63;;;25.20;58.60;;;;;;5024466;28;20061;-58
2023/07/29 09:34:09;;;;;;;0.77;0.68;;;25.30;58.30;;;;;;5045081;28;20120;-56
2023/07/29 09:36:35;;;;;;;0.85;0.73;;;25.40;57.70;;;;;;5042722;28;20045;-56
2023/07/29 09:39:03;;;;;;;0.73;0.70;;;25.40;57.60;;;;;;5034353;28;20451;-55
2023/07/29 09:41:32;;;;;;;0.95;0.73;;;25.50;57.50;;;;;;5043174;28;20183;-57
2023/07/29 09:44:01;;;;;;;1.30;1.00;;;25.50;57.60;;;;;;5041420;28;20046;-57
2023/07/29 09:46:36;;;;;;;1.70;0.77;;;25.60;57.20;;;;;;5028038;28;20060;-56
2023/07/29 09:49:05;;;;;;;1.30;0.88;;;25.60;56.40;;;;;;5034069;28;20049;-57
2023/07/29 09:51:37;;;;;;;0.90;0.70;;;25.60;56.30;;;;;;5040836;28;20049;-57
2023/07/29 09:54:04;;;;;;;0.60;0.60;;;25.60;56.70;;;;;;5043355;28;20079;-56
2023/07/29 09:56:31;;;;;;;5.75;1.45;;;25.50;56.40;;;;;;5031494;28;20104;-56
2023/07/29 09:58:58;;;;;;;2.30;0.80;;;25.50;56.60;;;;;;5034834;28;20037;-57
2023/07/29 10:01:25;;;;;;;3.20;1.35;;;25.50;56.70;;;;;;5033527;28;20045;-56
2023/07/29 10:03:52;;;;;;;0.82;0.82;;;25.50;56.50;;;;;;5040695;28;20060;-56
2023/07/29 10:06:19;;;;;;;1.65;0.73;;;25.60;56.60;;;;;;5041795;28;20126;-56
2023/07/29 10:08:49;;;;;;;1.27;0.90;;;25.60;56.80;;;;;;5029773;28;20104;-57
2023/07/29 10:11:16;;;;;;;0.70;0.68;;;25.70;57.00;;;;;;5028498;28;20045;-57
2023/07/29 10:13:43;;;;;;;2.20;0.70;;;25.80;56.70;;;;;;5029850;28;20471;-57
2023/07/29 10:16:24;;;;;;;1.45;0.50;;;25.90;56.90;;;;;;5029044;28;20041;-55
2023/07/29 10:18:52;;;;;;;0.88;0.60;;;26.00;56.60;;;;;;5034209;28;20033;-56
2023/07/29 10:21:22;;;;;;;0.98;0.52;;;26.20;56.10;;;;;;5040255;28;20053;-56
2023/07/29 10:23:52;;;;;;;2.20;0.80;;;26.30;55.30;;;;;;5038357;28;20123;-56
2023/07/29 10:26:20;;;;;;;0.90;0.50;;;26.30;54.70;;;;;;5027781;28;20053;-55
2023/07/29 10:28:52;;;;;;;1.13;0.88;;;26.40;54.50;;;;;;5030590;28;20052;-56
2023/07/29 10:31:22;;;;;;;0.68;0.50;;;26.50;53.70;;;;;;5030024;28;20049;-55
2023/07/29 10:33:49;;;;;;;1.05;0.60;;;26.60;53.90;;;;;;5044325;28;20523;-57
2023/07/29 10:36:17;;;;;;;0.90;0.60;;;26.60;53.50;;;;;;5036800;28;20045;-56
2023/07/29 10:38:47;;;;;;;1.02;1.02;;;26.60;53.50;;;;;;5025336;28;20309;-56
2023/07/29 10:41:13;;;;;;;1.15;0.68;;;26.60;53.30;;;;;;5014375;28;20113;-56
2023/07/29 10:43:40;;;;;;;2.75;1.00;;;26.50;53.70;;;;;;5037004;28;20459;-56
2023/07/29 10:46:20;;;;;;;0.50;0.50;;;26.50;53.70;;;;;;5045764;28;20052;-57
2023/07/29 10:48:53;;;;;;;0.80;0.80;;;26.50;54.00;;;;;;5041601;28;20059;-56
2023/07/29 10:51:27;;;;;;;1.20;0.82;;;26.50;53.50;;;;;;5028399;28;20060;-55
2023/07/29 10:53:59;;;;;;;0.90;0.88;;;26.50;53.40;;;;;;5032267;28;20047;-56
2023/07/29 10:56:36;;;;;;;0.70;0.70;;;26.60;53.70;;;;;;5041397;28;20135;-55
2023/07/29 10:59:12;;;;;;;1.88;0.90;;;26.60;53.70;;;;;;5020920;28;20041;-56
2023/07/29 11:01:42;;;;;;;1.63;1.02;;;26.70;53.80;;;;;;5033320;28;20040;-56
2023/07/29 11:04:25;;;;;;;1.38;1.02;;;26.80;54.90;;;;;;5038496;28;20444;-56
2023/07/29 11:07:07;;;;;;;1.10;1.00;;;27.00;53.40;;;;;;5044791;28;20133;-56
2023/07/29 11:09:45;;;;;;;1.13;1.02;;;27.10;52.80;;;;;;5026874;28;20095;-56
2023/07/29 11:12:47;;;;;;;0.80;0.80;;;27.20;53.20;;;;;;5267675;22;20052;-54
2023/07/29 11:15:21;;;;;;;3.75;1.38;;;27.20;53.00;;;;;;5084090;28;20044;-53
2023/07/29 11:17:49;;;;;;;1.75;1.23;;;27.30;53.00;;;;;;5094421;28;20119;-53
2023/07/29 11:20:18;;;;;;;1.50;0.98;;;27.30;52.80;;;;;;5084433;28;20040;-55
2023/07/29 11:22:45;;;;;;;1.40;0.88;;;27.30;52.50;;;;;;5088548;28;20040;-53
2023/07/29 11:25:14;;;;;;;1.20;0.90;;;27.40;52.50;;;;;;5087720;28;20517;-54
2023/07/29 11:27:41;;;;;;;0.98;0.85;;;27.50;52.70;;;;;;5083860;28;20472;-54
2023/07/29 11:30:11;;;;;;;1.08;0.85;;;27.40;52.70;;;;;;5084102;28;20098;-55
2023/07/29 11:32:39;;;;;;;0.90;0.90;;;27.40;52.70;;;;;;5087591;28;20048;-54
2023/07/29 11:35:11;;;;;;;2.50;1.30;;;27.40;52.70;;;;;;5088190;28;20048;-54
2023/07/29 11:37:39;;;;;;;1.35;1.10;;;27.50;52.90;;;;;;5088862;28;20044;-55
2023/07/29 11:40:08;;;;;;;0.95;0.85;;;27.60;53.10;;;;;;5088117;28;20119;-52
2023/07/29 11:42:35;;;;;;;1.02;0.90;;;27.70;52.70;;;;;;5086258;28;20044;-55
2023/07/29 11:45:03;;;;;;;1.02;0.98;;;27.80;52.50;;;;;;5087917;28;20052;-55
2023/07/29 11:47:31;;;;;;;0.90;0.90;;;27.80;52.40;;;;;;5080905;28;20048;-54
2023/07/29 11:50:03;;;;;;;1.33;1.15;;;27.90;52.40;;;;;;5088412;28;20390;-53
2023/07/29 11:52:31;;;;;;;;;;;27.90;51.50;;;;;;5088081;28;20505;-55
2023/07/29 11:54:58;;;;;;;2.05;0.70;;;28.00;52.80;;;;;;5085233;28;20384;-55
2023/07/29 11:57:25;;;;;;;0.90;0.90;;;27.90;52.00;;;;;;5085673;28;20071;-56
2023/07/29 11:59:53;;;;;;;1.23;0.90;;;28.00;52.10;;;;;;5083906;28;20044;-52
2023/07/29 12:02:23;;;;;;;1.40;1.00;;;28.00;53.00;;;;;;5087724;28;20048;-52
2023/07/29 12:04:51;;;;;;;1.30;0.75;;;28.00;52.20;;;;;;5069844;28;20056;-53
2023/07/29 12:07:18;;;;;;;1.40;0.90;;;28.10;52.20;;;;;;5088749;28;20096;-53
2023/07/29 12:09:46;;;;;;;0.85;0.82;;;28.10;51.50;;;;;;5070477;28;20093;-52
2023/07/29 12:12:13;;;;;;;1.45;1.15;;;28.10;51.10;;;;;;5091508;28;20075;-52
2023/07/29 12:14:44;;;;;;;0.93;0.88;;;28.20;51.80;;;;;;5089884;28;20115;-53
2023/07/29 12:17:10;;;;;;;1.90;0.90;;;28.20;51.60;;;;;;5084691;28;20073;-53
2023/07/29 12:19:38;;;;;;;2.75;1.27;;;28.30;50.90;;;;;;5088281;28;20044;-53
2023/07/29 12:22:07;;;;;;;1.48;0.90;;;28.40;50.80;;;;;;5091448;28;20435;-52
2023/07/29 12:24:36;;;;;;;1.95;0.80;;;28.40;50.70;;;;;;5088344;28;20036;-52
2023/07/29 12:27:03;;;;;;;1.30;1.20;;;28.40;50.90;;;;;;5087235;28;20052;-53
2023/07/29 12:29:30;;;;;;;1.20;1.00;;;28.50;50.60;;;;;;5086695;28;20044;-51
2023/07/29 12:32:00;;;;;;;2.40;1.00;;;28.50;50.80;;;;;;5091082;28;20818;-52
2023/07/29 12:34:28;;;;;;;3.22;1.10;;;28.60;50.70;;;;;;5087713;28;20071;-53
2023/07/29 12:36:57;;;;;;;1.42;1.33;;;28.70;50.70;;;;;;5093885;28;20078;-52
2023/07/29 12:39:29;;;;;;;1.08;0.90;;;28.70;50.70;;;;;;5093728;28;20573;-53
2023/07/29 12:42:01;;;;;;;2.47;1.25;;;28.80;50.60;;;;;;5080902;28;20100;-52
2023/07/29 12:44:33;;;;;;;1.20;1.10;;;28.80;49.90;;;;;;5091144;28;20071;-52
2023/07/29 12:47:05;;;;;;;1.00;0.90;;;28.80;49.60;;;;;;5091730;28;20047;-53
2023/07/29 12:49:31;;;;;;;0.90;0.90;;;28.70;49.30;;;;;;5090880;28;20456;-53
2023/07/29 12:51:59;;;;;;;1.08;0.80;;;28.70;49.40;;;;;;5089824;28;20383;-52
2023/07/29 12:54:26;;;;;;;1.38;1.00;;;28.60;49.40;;;;;;5090546;28;20036;-52
2023/07/29 12:56:53;;;;;;;0.95;0.80;;;28.40;49.90;;;;;;5092464;28;20093;-51
2023/07/29 12:59:20;;;;;;;1.13;0.82;;;28.30;50.30;;;;;;5086397;28;20082;-48